Time;durP1;ratioP1;P1;durP2;ratioP2;P2;SDS_P1;SDS_P2;PMS_P1;PMS_P2;Temp;Humidity;BMP_temperature;BMP_pressure;BME280_temperature;BME280_humidity;BME280_pressure;Samples;Min_cycle;Max_cycle;Signal;HPM_P1;HPM_P2
2022/07/29 00:00:10;;;;;;;4.45;2.28;;;21.90;48.50;;;;;;5064858;28;20625;-48
2022/07/29 00:02:35;;;;;;;3.88;2.40;;;21.90;48.60;;;;;;5064982;28;20036;-50
2022/07/29 00:05:01;;;;;;;3.00;2.30;;;21.90;48.50;;;;;;5065465;28;20112;-47
2022/07/29 00:07:27;;;;;;;4.20;2.70;;;21.90;48.50;;;;;;5065174;28;20039;-51
2022/07/29 00:09:52;;;;;;;3.95;2.60;;;21.90;48.60;;;;;;5046144;28;20036;-47
2022/07/29 00:12:22;;;;;;;4.35;2.65;;;21.90;48.60;;;;;;5064851;28;20032;-46
2022/07/29 00:14:47;;;;;;;4.05;2.90;;;21.90;48.60;;;;;;5064957;28;20051;-49
2022/07/29 00:17:13;;;;;;;3.10;2.58;;;21.90;48.60;;;;;;5065292;28;20028;-49
2022/07/29 00:19:38;;;;;;;4.35;2.63;;;21.90;48.60;;;;;;5064370;28;20110;-48
2022/07/29 00:22:04;;;;;;;3.50;2.70;;;21.90;48.60;;;;;;5064652;28;20078;-50
2022/07/29 00:24:29;;;;;;;4.38;2.75;;;21.90;48.70;;;;;;5064775;28;20111;-49
2022/07/29 00:26:55;;;;;;;5.97;2.78;;;21.90;48.70;;;;;;5064665;28;20021;-51
2022/07/29 00:29:20;;;;;;;5.13;3.25;;;21.80;48.70;;;;;;5064039;28;20397;-47
2022/07/29 00:31:46;;;;;;;4.78;3.30;;;21.90;48.80;;;;;;5064343;28;20041;-50
2022/07/29 00:36:57;;;;;;;;;;;21.80;48.80;;;;;;5050219;28;20370;-49
2022/07/29 00:39:22;;;;;;;7.05;4.03;;;21.80;48.80;;;;;;5064164;28;19924;-49
2022/07/29 00:41:48;;;;;;;6.65;5.03;;;21.80;48.80;;;;;;5064328;28;20036;-49
2022/07/29 00:44:14;;;;;;;5.97;4.15;;;21.80;48.80;;;;;;5064720;28;20044;-49
2022/07/29 00:46:39;;;;;;;7.93;5.40;;;21.80;48.80;;;;;;5064492;28;20493;-47
2022/07/29 00:49:06;;;;;;;6.72;4.80;;;21.80;48.90;;;;;;5064302;28;20027;-46
2022/07/29 00:51:32;;;;;;;8.70;5.57;;;21.80;48.90;;;;;;5063812;28;20528;-43
2022/07/29 00:53:58;;;;;;;8.85;5.70;;;21.80;48.90;;;;;;5063607;28;20039;-46
2022/07/29 00:56:23;;;;;;;7.45;4.40;;;21.80;48.90;;;;;;5063027;28;20036;-49
2022/07/29 00:58:49;;;;;;;10.55;6.57;;;21.80;48.90;;;;;;5064122;28;20093;-48
2022/07/29 01:01:14;;;;;;;8.05;5.93;;;21.80;48.90;;;;;;5064131;28;20028;-52
2022/07/29 01:03:40;;;;;;;10.60;6.10;;;21.80;49.00;;;;;;5065574;28;20032;-48
2022/07/29 01:06:05;;;;;;;10.57;6.75;;;21.80;49.00;;;;;;5068294;28;20036;-48
2022/07/29 01:08:31;;;;;;;10.20;6.65;;;21.80;49.00;;;;;;5066814;28;20501;-48
2022/07/29 01:10:56;;;;;;;9.43;7.03;;;21.80;49.00;;;;;;5068207;28;20021;-52
2022/07/29 01:13:22;;;;;;;10.90;7.07;;;21.80;49.00;;;;;;5066819;28;21417;-49
2022/07/29 01:15:55;;;;;;;11.35;7.75;;;21.80;49.10;;;;;;5067271;28;20118;-48
2022/07/29 01:18:30;;;;;;;13.13;7.10;;;21.80;49.20;;;;;;5066901;28;20025;-47
2022/07/29 01:21:09;;;;;;;13.10;7.63;;;21.80;49.20;;;;;;5066852;28;20661;-48
2022/07/29 01:24:03;;;;;;;12.18;7.55;;;21.80;49.30;;;;;;5066554;28;20051;-47
2022/07/29 01:26:35;;;;;;;9.68;6.55;;;21.90;49.40;;;;;;5062280;28;20666;-49
2022/07/29 01:29:12;;;;;;;11.40;7.35;;;21.80;49.30;;;;;;5046535;28;20035;-48
2022/07/29 01:31:48;;;;;;;10.40;7.30;;;21.80;49.30;;;;;;5067586;28;20116;-48
2022/07/29 01:34:25;;;;;;;12.05;6.15;;;21.80;49.30;;;;;;5066830;28;20048;-47
2022/07/29 01:36:58;;;;;;;8.38;6.25;;;21.80;49.30;;;;;;5033552;28;20055;-47
2022/07/29 01:39:30;;;;;;;8.63;6.70;;;21.80;49.40;;;;;;5066062;28;20035;-47
2022/07/29 01:41:59;;;;;;;9.18;6.28;;;21.80;49.30;;;;;;5050502;28;20208;-47
2022/07/29 01:44:32;;;;;;;8.45;5.65;;;21.80;49.40;;;;;;5050402;28;20043;-48
2022/07/29 01:46:58;;;;;;;7.97;6.13;;;21.80;49.50;;;;;;5050329;28;20556;-47
2022/07/29 01:49:27;;;;;;;8.20;5.53;;;21.80;49.50;;;;;;5065985;28;20497;-48
2022/07/29 01:51:59;;;;;;;8.30;5.93;;;21.80;49.50;;;;;;5049483;28;20048;-49
2022/07/29 01:54:37;;;;;;;7.30;5.28;;;21.80;49.50;;;;;;5049953;28;20404;-48
2022/07/29 01:57:04;;;;;;;7.63;4.88;;;21.80;49.50;;;;;;5023670;28;20031;-49
2022/07/29 01:59:29;;;;;;;7.30;4.80;;;21.80;49.60;;;;;;5065547;28;20024;-47
2022/07/29 02:01:56;;;;;;;6.47;4.47;;;21.80;49.60;;;;;;5049238;28;20032;-46
2022/07/29 02:04:21;;;;;;;8.27;4.32;;;21.80;49.80;;;;;;5049301;28;20031;-48
2022/07/29 02:06:48;;;;;;;5.35;4.45;;;21.80;49.90;;;;;;5065883;28;20028;-47
2022/07/29 02:09:14;;;;;;;5.30;4.60;;;21.80;50.00;;;;;;5064956;28;20062;-49
2022/07/29 02:11:39;;;;;;;9.25;4.22;;;21.80;50.00;;;;;;5065630;28;20037;-47
2022/07/29 02:14:05;;;;;;;7.78;4.57;;;21.80;50.00;;;;;;5032520;28;20028;-48
2022/07/29 02:16:31;;;;;;;5.80;4.03;;;21.80;50.00;;;;;;5048828;28;20493;-47
2022/07/29 02:18:56;;;;;;;5.80;4.05;;;21.80;50.00;;;;;;5048659;28;20524;-48
2022/07/29 02:21:23;;;;;;;5.07;3.85;;;21.80;50.00;;;;;;5047905;28;20078;-48
2022/07/29 02:23:50;;;;;;;6.53;3.90;;;21.80;50.10;;;;;;5065959;28;20044;-48
2022/07/29 02:26:15;;;;;;;7.47;3.58;;;21.80;50.10;;;;;;5065787;28;20037;-50
2022/07/29 02:28:40;;;;;;;7.28;4.15;;;21.80;50.10;;;;;;5065279;28;20067;-47
2022/07/29 02:31:06;;;;;;;6.60;3.85;;;21.80;50.20;;;;;;5065569;28;20646;-48
2022/07/29 02:33:32;;;;;;;5.22;3.58;;;21.80;50.20;;;;;;5065673;28;20082;-48
2022/07/29 02:35:57;;;;;;;5.28;3.75;;;21.80;50.30;;;;;;5065565;28;20040;-50
2022/07/29 02:41:38;;;;;;;4.43;3.30;;;21.80;49.80;;;;;;5065487;28;20031;-47
2022/07/29 02:44:09;;;;;;;5.63;3.50;;;21.70;50.40;;;;;;5066641;28;20493;-47
2022/07/29 02:46:35;;;;;;;6.30;3.47;;;21.80;50.50;;;;;;5064686;28;20248;-47
2022/07/29 02:49:15;;;;;;;5.53;3.42;;;21.80;50.60;;;;;;5065497;28;20033;-47
2022/07/29 02:51:46;;;;;;;5.25;3.40;;;21.70;50.70;;;;;;5064884;28;20029;-46
2022/07/29 02:54:20;;;;;;;4.30;2.88;;;21.80;50.70;;;;;;5065516;28;20422;-48
2022/07/29 02:56:45;;;;;;;8.52;3.42;;;21.80;50.80;;;;;;5065402;28;20655;-47
2022/07/29 02:59:11;;;;;;;3.75;3.03;;;21.70;50.80;;;;;;5048237;28;20025;-48
2022/07/29 03:01:39;;;;;;;5.38;3.47;;;21.70;50.90;;;;;;5065704;28;20106;-52
2022/07/29 03:04:04;;;;;;;7.03;3.88;;;21.80;51.10;;;;;;5065354;28;20028;-48
2022/07/29 03:06:30;;;;;;;6.00;3.35;;;21.70;51.00;;;;;;5065440;28;20169;-50
2022/07/29 03:08:55;;;;;;;5.25;3.47;;;21.70;51.00;;;;;;5065777;28;20394;-51
2022/07/29 03:11:21;;;;;;;7.65;3.40;;;21.80;51.10;;;;;;5048015;28;20039;-47
2022/07/29 03:13:46;;;;;;;5.45;3.63;;;21.70;51.00;;;;;;5064735;28;20064;-48
2022/07/29 03:16:12;;;;;;;4.90;2.88;;;21.80;51.10;;;;;;5048503;28;20031;-46
2022/07/29 03:18:38;;;;;;;4.72;3.28;;;21.70;51.10;;;;;;5047795;28;20512;-47
2022/07/29 03:21:03;;;;;;;3.50;2.40;;;21.80;51.20;;;;;;5048316;28;20398;-48
2022/07/29 03:23:29;;;;;;;4.30;2.50;;;21.70;51.00;;;;;;5064215;28;20021;-48
2022/07/29 03:25:55;;;;;;;7.32;2.95;;;21.80;51.10;;;;;;5066049;28;20093;-50
2022/07/29 03:28:20;;;;;;;3.72;3.05;;;21.70;51.00;;;;;;5065856;28;20508;-49
2022/07/29 03:30:46;;;;;;;5.90;2.85;;;21.70;51.10;;;;;;5065577;28;20477;-48
2022/07/29 03:33:11;;;;;;;7.30;2.83;;;21.70;51.10;;;;;;5047734;28;20033;-48
2022/07/29 03:35:37;;;;;;;6.13;2.80;;;21.70;51.20;;;;;;5045984;28;20079;-49
2022/07/29 03:38:02;;;;;;;3.95;2.80;;;21.70;51.20;;;;;;5053244;28;20066;-48
2022/07/29 03:40:33;;;;;;;3.47;2.55;;;21.80;51.20;;;;;;5065395;28;20409;-49
2022/07/29 03:42:59;;;;;;;4.75;2.97;;;21.70;51.20;;;;;;5047800;28;20063;-48
2022/07/29 03:45:24;;;;;;;4.32;2.63;;;21.70;51.30;;;;;;5064254;28;20117;-48
2022/07/29 03:47:51;;;;;;;5.10;2.80;;;21.70;51.20;;;;;;5065290;28;20036;-46
2022/07/29 03:50:19;;;;;;;3.80;2.75;;;21.70;51.30;;;;;;5065008;28;20028;-48
2022/07/29 03:52:47;;;;;;;3.92;2.35;;;21.70;51.20;;;;;;5063394;28;20059;-48
2022/07/29 03:55:13;;;;;;;2.70;2.10;;;21.70;51.20;;;;;;5064116;28;20498;-46
2022/07/29 03:57:38;;;;;;;2.67;2.33;;;21.70;51.30;;;;;;5047586;28;20032;-48
2022/07/29 04:00:05;;;;;;;5.88;2.75;;;21.70;51.30;;;;;;5062669;28;20040;-46
2022/07/29 04:02:31;;;;;;;5.45;2.70;;;21.70;51.20;;;;;;5065297;28;20032;-47
2022/07/29 04:04:56;;;;;;;3.67;2.50;;;21.70;51.20;;;;;;5052782;28;20532;-46
2022/07/29 04:07:22;;;;;;;4.03;2.67;;;21.70;51.20;;;;;;5042874;28;20029;-48
2022/07/29 04:09:48;;;;;;;3.22;2.08;;;21.70;51.30;;;;;;5061956;28;20024;-49
2022/07/29 04:12:13;;;;;;;4.35;2.45;;;21.70;51.30;;;;;;5065071;28;20028;-48
2022/07/29 04:14:39;;;;;;;3.72;2.15;;;21.70;51.30;;;;;;5065017;28;20021;-48
2022/07/29 04:17:04;;;;;;;3.67;2.40;;;21.70;51.40;;;;;;5065145;28;20628;-47
2022/07/29 04:19:30;;;;;;;3.85;2.63;;;21.70;51.40;;;;;;5063619;28;20388;-48
2022/07/29 04:21:57;;;;;;;6.05;2.63;;;21.70;51.40;;;;;;5064824;28;20032;-48
2022/07/29 04:24:22;;;;;;;3.97;2.60;;;21.70;51.50;;;;;;5064753;28;20550;-51
2022/07/29 04:26:48;;;;;;;4.05;2.40;;;21.70;51.60;;;;;;5064891;28;20032;-47
2022/07/29 04:29:14;;;;;;;4.72;3.03;;;21.70;51.60;;;;;;5064097;28;20074;-47
2022/07/29 04:31:40;;;;;;;2.78;2.28;;;21.70;51.60;;;;;;5064778;28;20028;-48
2022/07/29 04:34:05;;;;;;;4.22;2.60;;;21.70;51.70;;;;;;5064521;28;20033;-48
2022/07/29 04:36:31;;;;;;;3.35;2.50;;;21.70;51.70;;;;;;5065110;28;20438;-48
2022/07/29 04:38:56;;;;;;;3.35;2.72;;;21.70;51.70;;;;;;5063825;28;20028;-48
2022/07/29 04:41:22;;;;;;;3.85;2.75;;;21.70;51.60;;;;;;5064587;28;20032;-47
2022/07/29 04:43:47;;;;;;;3.85;2.50;;;21.70;51.70;;;;;;5064883;28;20507;-47
2022/07/29 04:46:13;;;;;;;4.13;2.20;;;21.70;51.70;;;;;;5064749;28;20028;-48
2022/07/29 04:48:38;;;;;;;3.58;2.25;;;21.70;51.70;;;;;;5063921;28;20032;-47
2022/07/29 04:51:04;;;;;;;3.92;2.45;;;21.70;51.70;;;;;;5064186;28;20056;-46
2022/07/29 04:53:29;;;;;;;3.67;2.60;;;21.70;51.70;;;;;;5063147;28;20044;-48
2022/07/29 04:55:55;;;;;;;4.82;2.72;;;21.70;51.70;;;;;;5064769;28;20033;-48
2022/07/29 04:58:22;;;;;;;4.45;2.50;;;21.70;51.80;;;;;;5064489;28;20021;-49
2022/07/29 05:00:48;;;;;;;3.25;2.50;;;21.70;51.80;;;;;;5063868;28;20640;-48
2022/07/29 05:03:13;;;;;;;4.55;2.80;;;21.70;51.80;;;;;;5064711;28;20024;-47
2022/07/29 05:05:40;;;;;;;3.15;2.38;;;21.70;51.80;;;;;;5064351;28;20082;-48
2022/07/29 05:08:06;;;;;;;3.03;2.55;;;21.70;51.80;;;;;;5064712;28;20220;-47
2022/07/29 05:10:32;;;;;;;3.05;2.60;;;21.70;52.50;;;;;;5064398;28;20048;-48
2022/07/29 05:12:57;;;;;;;3.67;2.13;;;21.70;51.90;;;;;;5063239;28;20044;-47
2022/07/29 05:15:23;;;;;;;6.57;2.85;;;21.70;52.00;;;;;;5064335;28;20021;-48
2022/07/29 05:17:48;;;;;;;3.70;2.53;;;21.70;52.10;;;;;;5062964;28;20028;-48
2022/07/29 05:20:14;;;;;;;3.20;2.47;;;21.70;52.10;;;;;;5063652;28;20078;-47
2022/07/29 05:22:40;;;;;;;6.50;3.08;;;21.70;52.20;;;;;;5064605;28;20738;-47
2022/07/29 05:25:06;;;;;;;4.80;2.10;;;21.70;52.10;;;;;;5064266;28;20028;-48
2022/07/29 05:27:31;;;;;;;4.57;2.67;;;21.70;52.30;;;;;;5064970;28;20497;-48
2022/07/29 05:29:57;;;;;;;4.25;2.55;;;21.70;52.30;;;;;;5063673;28;20033;-50
2022/07/29 05:32:22;;;;;;;3.22;2.92;;;21.70;52.30;;;;;;5062597;28;20033;-47
2022/07/29 05:34:48;;;;;;;3.95;2.50;;;21.70;52.10;;;;;;5064101;28;20079;-48
2022/07/29 05:37:13;;;;;;;4.53;2.58;;;21.70;52.20;;;;;;5064509;28;20029;-49
2022/07/29 05:39:39;;;;;;;4.82;2.65;;;21.70;52.30;;;;;;5063808;28;20252;-47
2022/07/29 05:42:09;;;;;;;4.50;2.50;;;21.70;52.30;;;;;;5064518;28;20029;-48
2022/07/29 05:44:38;;;;;;;5.47;2.55;;;21.70;52.20;;;;;;5059716;22;20034;-47
2022/07/29 05:47:04;;;;;;;3.47;2.22;;;21.70;52.20;;;;;;5043838;28;20037;-47
2022/07/29 05:49:29;;;;;;;5.25;2.70;;;21.70;52.20;;;;;;5043594;28;20570;-47
2022/07/29 05:51:55;;;;;;;3.33;2.45;;;21.70;52.30;;;;;;5066262;28;20048;-47
2022/07/29 05:54:20;;;;;;;3.95;2.42;;;21.70;52.30;;;;;;5067357;28;20147;-47
2022/07/29 05:56:46;;;;;;;3.15;2.50;;;21.70;52.30;;;;;;5067206;28;20083;-48
2022/07/29 05:59:11;;;;;;;3.60;2.78;;;21.70;52.30;;;;;;5066723;28;20494;-49
2022/07/29 06:01:39;;;;;;;3.30;2.38;;;21.70;52.40;;;;;;5066901;28;20040;-47
2022/07/29 06:04:05;;;;;;;3.85;2.88;;;21.70;52.30;;;;;;5072038;23;20036;-52
2022/07/29 06:06:31;;;;;;;3.20;2.22;;;21.70;52.40;;;;;;5065731;28;20073;-51
2022/07/29 06:08:56;;;;;;;4.60;1.92;;;21.70;52.40;;;;;;5066211;28;20047;-48
2022/07/29 06:11:22;;;;;;;4.45;2.70;;;21.70;52.50;;;;;;5064263;28;20029;-49
2022/07/29 06:13:47;;;;;;;2.50;2.17;;;21.70;52.40;;;;;;5045890;28;20494;-49
2022/07/29 06:16:13;;;;;;;4.00;2.38;;;21.70;52.60;;;;;;5036306;28;20025;-51
2022/07/29 06:18:38;;;;;;;4.88;2.30;;;21.70;53.30;;;;;;5045504;28;20032;-48
2022/07/29 06:21:08;;;;;;;3.50;2.47;;;21.70;52.70;;;;;;5046219;28;20025;-49
2022/07/29 06:23:34;;;;;;;3.50;2.55;;;21.70;52.70;;;;;;5043936;28;20033;-53
2022/07/29 06:25:59;;;;;;;3.47;2.30;;;21.70;52.50;;;;;;5045864;28;20036;-52
2022/07/29 06:28:26;;;;;;;3.38;2.40;;;21.70;52.50;;;;;;5045579;28;21002;-52
2022/07/29 06:30:51;;;;;;;3.35;2.45;;;21.70;52.70;;;;;;5040002;28;20045;-49
2022/07/29 06:33:18;;;;;;;4.28;2.65;;;21.70;52.70;;;;;;5045631;28;20041;-48
2022/07/29 06:35:44;;;;;;;3.20;2.13;;;21.70;52.70;;;;;;5045148;28;20041;-50
2022/07/29 06:38:11;;;;;;;4.20;2.42;;;21.70;52.90;;;;;;5044237;28;20028;-48
2022/07/29 06:43:20;;;;;;;2.53;2.10;;;21.70;52.70;;;;;;5044735;28;20036;-50
2022/07/29 06:45:46;;;;;;;3.83;2.35;;;21.70;52.50;;;;;;5044805;28;20029;-49
2022/07/29 06:48:11;;;;;;;3.15;2.05;;;21.70;52.90;;;;;;5043693;28;20312;-48
2022/07/29 06:50:37;;;;;;;4.35;2.38;;;21.70;52.90;;;;;;5042688;28;20044;-49
2022/07/29 06:53:03;;;;;;;3.75;2.58;;;21.70;52.90;;;;;;5045488;28;20040;-47
2022/07/29 06:55:28;;;;;;;3.15;2.28;;;21.70;52.70;;;;;;5026588;28;20452;-47
2022/07/29 06:57:54;;;;;;;4.38;2.50;;;21.70;52.70;;;;;;5043455;28;20031;-50
2022/07/29 07:00:19;;;;;;;4.28;2.40;;;21.70;52.60;;;;;;5044795;28;20474;-50
2022/07/29 07:02:45;;;;;;;6.18;3.08;;;21.80;52.60;;;;;;5044665;28;20040;-50
2022/07/29 07:05:10;;;;;;;4.88;2.50;;;21.70;52.30;;;;;;5045190;28;20044;-51
2022/07/29 07:07:35;;;;;;;2.83;2.50;;;21.80;52.40;;;;;;5023553;28;20083;-49
2022/07/29 07:10:01;;;;;;;2.90;2.10;;;21.70;52.40;;;;;;5044197;28;20535;-52
2022/07/29 07:12:27;;;;;;;3.13;2.42;;;21.80;52.20;;;;;;5043798;28;20561;-52
2022/07/29 07:14:52;;;;;;;5.47;2.50;;;21.80;52.20;;;;;;5026917;28;20033;-53
2022/07/29 07:17:18;;;;;;;4.35;2.47;;;21.70;52.30;;;;;;5044868;28;20112;-52
2022/07/29 07:19:44;;;;;;;3.45;2.30;;;21.80;52.40;;;;;;5045202;28;20039;-50
2022/07/29 07:22:10;;;;;;;3.80;2.47;;;21.80;52.20;;;;;;5045118;28;20027;-50
2022/07/29 07:24:35;;;;;;;2.80;2.47;;;21.80;52.40;;;;;;5048424;28;20398;-51
2022/07/29 07:27:01;;;;;;;2.88;2.20;;;21.70;52.00;;;;;;5054585;28;20039;-54
2022/07/29 07:29:27;;;;;;;3.40;2.40;;;21.70;52.30;;;;;;5045699;28;20068;-54
2022/07/29 07:31:52;;;;;;;5.00;2.40;;;21.80;52.30;;;;;;5045004;28;20100;-51
2022/07/29 07:34:18;;;;;;;2.95;2.03;;;21.70;52.00;;;;;;5044949;28;20495;-53
2022/07/29 07:36:43;;;;;;;3.58;2.35;;;21.80;52.00;;;;;;5045818;28;20043;-50
2022/07/29 07:39:09;;;;;;;3.25;2.40;;;21.80;52.10;;;;;;5045525;28;20394;-54
2022/07/29 07:41:34;;;;;;;5.72;2.92;;;21.80;52.00;;;;;;5045278;28;20029;-55
2022/07/29 07:44:00;;;;;;;4.30;2.78;;;21.70;52.10;;;;;;5044623;28;20058;-49
2022/07/29 07:46:25;;;;;;;9.60;2.90;;;21.80;51.90;;;;;;5044284;28;20307;-52
2022/07/29 07:48:52;;;;;;;4.20;2.53;;;21.80;51.70;;;;;;5044055;28;20455;-50
2022/07/29 07:51:17;;;;;;;3.63;2.08;;;21.80;51.70;;;;;;5044712;28;20695;-52
2022/07/29 07:53:44;;;;;;;3.50;2.42;;;21.80;51.80;;;;;;5044252;28;20037;-51
2022/07/29 07:56:10;;;;;;;4.85;2.40;;;21.80;51.80;;;;;;5043880;28;20017;-53
2022/07/29 07:58:36;;;;;;;2.63;2.15;;;21.80;51.60;;;;;;5044482;28;20047;-55
2022/07/29 08:01:01;;;;;;;3.35;2.30;;;21.80;51.60;;;;;;5044612;28;20037;-52
2022/07/29 08:03:27;;;;;;;3.55;2.83;;;21.80;51.80;;;;;;5043994;28;20041;-49
2022/07/29 08:05:54;;;;;;;3.95;2.45;;;21.80;51.80;;;;;;5044178;28;20513;-51
2022/07/29 08:08:19;;;;;;;4.45;2.40;;;21.80;51.80;;;;;;5043972;28;20104;-52
2022/07/29 08:10:55;;;;;;;3.75;2.50;;;21.80;51.80;;;;;;5043650;28;20044;-52
2022/07/29 08:13:22;;;;;;;5.93;2.65;;;21.80;51.70;;;;;;5043004;28;20248;-51
2022/07/29 08:15:57;;;;;;;4.50;2.65;;;21.80;51.60;;;;;;5026164;28;20033;-50
2022/07/29 08:18:23;;;;;;;3.40;2.42;;;21.80;51.70;;;;;;5043374;28;20416;-50
2022/07/29 08:20:49;;;;;;;5.78;2.67;;;21.90;51.70;;;;;;5043830;28;20043;-49
2022/07/29 08:23:15;;;;;;;8.25;3.40;;;21.80;51.80;;;;;;5043424;28;20389;-48
2022/07/29 08:25:41;;;;;;;6.07;2.55;;;21.80;52.20;;;;;;5043485;28;20500;-52
2022/07/29 08:28:06;;;;;;;4.47;2.90;;;21.80;52.00;;;;;;5044144;28;20025;-51
2022/07/29 08:30:32;;;;;;;6.57;2.85;;;21.80;51.80;;;;;;5043801;28;20040;-50
2022/07/29 08:32:59;;;;;;;4.22;2.90;;;21.80;52.40;;;;;;5037998;28;20387;-51
2022/07/29 08:35:24;;;;;;;5.43;3.17;;;21.80;52.00;;;;;;5043617;28;20036;-50
2022/07/29 08:37:51;;;;;;;6.07;3.05;;;21.80;51.90;;;;;;5043321;28;20108;-51
2022/07/29 08:40:16;;;;;;;6.22;2.90;;;21.80;51.90;;;;;;5044483;28;20043;-49
2022/07/29 08:42:42;;;;;;;6.30;2.70;;;21.80;51.70;;;;;;5044335;28;20033;-51
2022/07/29 08:45:08;;;;;;;7.40;3.13;;;21.80;51.80;;;;;;5044239;28;20025;-54
2022/07/29 08:47:35;;;;;;;5.55;3.30;;;21.80;52.00;;;;;;5026426;28;20040;-48
2022/07/29 08:50:01;;;;;;;6.95;3.40;;;21.80;52.10;;;;;;5042005;28;20036;-51
2022/07/29 08:52:27;;;;;;;7.18;3.40;;;21.80;52.00;;;;;;5043188;28;20040;-51
2022/07/29 08:54:52;;;;;;;5.65;3.55;;;21.90;52.20;;;;;;5009262;28;20032;-50
2022/07/29 08:57:18;;;;;;;4.47;3.08;;;21.90;52.30;;;;;;5041764;28;20025;-51
2022/07/29 08:59:43;;;;;;;4.05;3.22;;;21.90;52.20;;;;;;5040167;28;20044;-51
2022/07/29 09:02:15;;;;;;;5.68;3.15;;;21.90;52.00;;;;;;5042080;28;20056;-50
2022/07/29 09:04:41;;;;;;;5.60;3.05;;;21.90;52.00;;;;;;5027872;28;20041;-50
2022/07/29 09:07:06;;;;;;;7.28;3.20;;;21.90;52.00;;;;;;5025785;28;20078;-49
2022/07/29 09:09:33;;;;;;;4.88;3.50;;;22.00;52.20;;;;;;4997243;28;20940;-52
2022/07/29 09:11:59;;;;;;;9.90;3.60;;;21.90;52.20;;;;;;5003251;28;20111;-56
2022/07/29 09:14:25;;;;;;;5.88;3.72;;;21.90;52.20;;;;;;5021661;28;20475;-51
2022/07/29 09:16:51;;;;;;;5.57;3.38;;;21.90;52.10;;;;;;5023596;28;20033;-53
2022/07/29 09:19:36;;;;;;;5.07;3.03;;;22.00;52.00;;;;;;5021626;28;20032;-54
2022/07/29 09:22:05;;;;;;;7.75;3.50;;;22.00;52.50;;;;;;5022099;28;20064;-54
2022/07/29 09:24:38;;;;;;;5.78;3.35;;;22.00;52.50;;;;;;5022910;28;20454;-54
2022/07/29 09:27:12;;;;;;;5.95;3.30;;;22.00;52.20;;;;;;5027746;28;20087;-54
2022/07/29 09:29:38;;;;;;;5.40;3.30;;;22.00;52.40;;;;;;5025591;28;20092;-59
2022/07/29 09:32:06;;;;;;;9.98;3.65;;;22.10;52.40;;;;;;5027843;28;20037;-56
2022/07/29 09:34:32;;;;;;;6.63;3.58;;;22.00;52.80;;;;;;5026402;28;20040;-48
2022/07/29 09:36:57;;;;;;;5.63;3.17;;;22.00;52.40;;;;;;5027004;28;20112;-51
2022/07/29 09:39:29;;;;;;;4.95;3.10;;;22.10;52.40;;;;;;5026654;28;20079;-50
2022/07/29 09:41:58;;;;;;;5.55;3.60;;;22.10;52.80;;;;;;5026440;28;20100;-50
2022/07/29 09:44:24;;;;;;;7.95;3.70;;;22.10;52.40;;;;;;5026307;28;20225;-49
2022/07/29 09:47:06;;;;;;;9.00;3.42;;;22.10;52.20;;;;;;5024961;28;20044;-49
2022/07/29 09:49:33;;;;;;;5.00;2.88;;;22.10;52.20;;;;;;5026123;28;20552;-52
2022/07/29 09:52:09;;;;;;;5.00;3.55;;;22.10;52.00;;;;;;5024841;28;20395;-52
2022/07/29 09:54:37;;;;;;;6.22;3.53;;;22.10;52.00;;;;;;5026598;28;20517;-53
2022/07/29 09:57:08;;;;;;;4.47;3.47;;;22.10;51.90;;;;;;5034569;28;20033;-52
2022/07/29 09:59:34;;;;;;;6.78;3.90;;;22.10;51.90;;;;;;5061222;28;20534;-51
2022/07/29 10:01:59;;;;;;;5.65;3.97;;;22.10;51.90;;;;;;5044557;28;20040;-52
2022/07/29 10:04:37;;;;;;;5.20;3.80;;;22.10;51.80;;;;;;5046047;28;20036;-52
2022/07/29 10:07:04;;;;;;;3.60;3.15;;;22.20;51.90;;;;;;5003283;28;20029;-52
2022/07/29 10:09:30;;;;;;;5.80;3.30;;;22.20;51.80;;;;;;5025357;28;20033;-49
2022/07/29 10:12:09;;;;;;;3.90;3.50;;;22.10;51.80;;;;;;5025589;28;20037;-52
2022/07/29 10:14:34;;;;;;;7.95;3.92;;;22.20;51.80;;;;;;5046094;28;20548;-52
2022/07/29 10:17:01;;;;;;;6.93;3.10;;;22.20;52.20;;;;;;5045482;28;20025;-52
2022/07/29 10:19:28;;;;;;;10.32;3.72;;;22.20;51.90;;;;;;5045103;28;20024;-49
2022/07/29 10:21:53;;;;;;;5.18;3.58;;;22.20;52.00;;;;;;5061039;28;20037;-53
2022/07/29 10:24:19;;;;;;;11.82;3.90;;;22.20;52.00;;;;;;5045551;28;20056;-52
2022/07/29 10:26:45;;;;;;;4.97;3.50;;;22.30;52.00;;;;;;5044347;28;20029;-50
2022/07/29 10:29:11;;;;;;;7.80;4.13;;;22.30;52.20;;;;;;5043791;28;20033;-50
2022/07/29 10:31:48;;;;;;;4.50;3.55;;;22.40;52.10;;;;;;5046160;28;20033;-50
2022/07/29 10:34:34;;;;;;;6.82;3.40;;;22.50;52.00;;;;;;5038972;28;20029;-52
2022/07/29 10:37:05;;;;;;;;;;;22.40;52.10;;;;;;5024619;28;20032;-53
2022/07/29 10:39:42;;;;;;;6.40;3.90;;;22.40;52.00;;;;;;5041592;28;19944;-52
2022/07/29 10:42:18;;;;;;;5.18;3.55;;;22.30;52.10;;;;;;5040043;28;20128;-53
2022/07/29 10:44:44;;;;;;;4.70;3.63;;;22.30;52.00;;;;;;5046479;28;20028;-52
2022/07/29 10:47:28;;;;;;;8.13;4.13;;;22.30;52.10;;;;;;5043870;28;20021;-47
2022/07/29 10:50:00;;;;;;;4.75;3.70;;;22.40;52.10;;;;;;5043792;28;20025;-47
2022/07/29 10:52:54;;;;;;;4.55;3.55;;;22.30;51.90;;;;;;5012322;28;20034;-55
2022/07/29 10:55:36;;;;;;;8.07;3.78;;;22.30;51.90;;;;;;5045482;28;20033;-51
2022/07/29 10:58:23;;;;;;;5.47;3.78;;;22.40;52.50;;;;;;5045038;28;20041;-51
2022/07/29 11:00:50;;;;;;;8.70;3.53;;;22.40;51.80;;;;;;5044018;28;20025;-50
2022/07/29 11:03:40;;;;;;;5.15;3.22;;;22.40;51.80;;;;;;5043803;28;20429;-48
2022/07/29 11:06:05;;;;;;;6.30;4.00;;;22.40;51.70;;;;;;5045814;28;20428;-51
2022/07/29 11:08:31;;;;;;;3.90;3.33;;;22.50;51.60;;;;;;5041621;28;20032;-52
2022/07/29 11:11:30;;;;;;;4.35;3.58;;;22.50;51.50;;;;;;5042881;28;20035;-51
2022/07/29 11:13:55;;;;;;;5.18;3.85;;;22.40;51.50;;;;;;5059068;28;20452;-55
2022/07/29 11:16:25;;;;;;;6.45;3.97;;;22.50;51.60;;;;;;5046835;28;20064;-53
2022/07/29 11:19:12;;;;;;;3.95;3.55;;;22.50;51.60;;;;;;5042606;28;20332;-53
2022/07/29 11:21:39;;;;;;;6.00;3.78;;;22.50;51.40;;;;;;5011434;28;20247;-54
2022/07/29 11:24:23;;;;;;;7.88;3.90;;;22.50;51.40;;;;;;5023628;28;20414;-54
2022/07/29 11:27:07;;;;;;;4.30;3.90;;;22.50;51.30;;;;;;5045307;28;20474;-49
2022/07/29 11:29:32;;;;;;;4.15;3.53;;;22.50;51.20;;;;;;5045155;28;20449;-54
2022/07/29 11:32:11;;;;;;;4.95;4.35;;;22.60;51.10;;;;;;5043862;28;20054;-58
2022/07/29 11:34:40;;;;;;;4.20;3.80;;;22.60;50.90;;;;;;5045316;28;20029;-54
2022/07/29 11:37:12;;;;;;;5.32;4.03;;;22.60;50.90;;;;;;5043175;28;20028;-53
2022/07/29 11:39:38;;;;;;;4.10;3.75;;;22.70;51.40;;;;;;5043920;28;20021;-51
2022/07/29 11:42:16;;;;;;;5.13;4.50;;;22.70;50.60;;;;;;5044290;28;20029;-49
2022/07/29 11:45:05;;;;;;;5.40;4.05;;;22.70;50.70;;;;;;5043375;28;20408;-58
2022/07/29 11:47:31;;;;;;;6.78;4.28;;;22.70;51.40;;;;;;5043524;28;20184;-54
2022/07/29 11:49:57;;;;;;;6.30;4.38;;;22.70;50.80;;;;;;5043210;28;20029;-55
2022/07/29 11:52:23;;;;;;;7.00;4.07;;;22.70;50.80;;;;;;5043568;28;20391;-53
2022/07/29 11:54:51;;;;;;;3.95;3.55;;;22.70;50.90;;;;;;5044078;28;20032;-51
2022/07/29 11:57:19;;;;;;;5.60;4.13;;;22.70;51.30;;;;;;5044033;28;20025;-48
2022/07/29 11:59:46;;;;;;;5.53;4.03;;;22.70;51.20;;;;;;5044026;28;20064;-50
2022/07/29 12:02:12;;;;;;;3.80;3.50;;;22.80;51.40;;;;;;5043821;28;20409;-52
2022/07/29 12:04:50;;;;;;;5.70;4.28;;;22.80;51.30;;;;;;5061133;22;20041;-49
2022/07/29 12:07:15;;;;;;;4.32;3.90;;;22.80;51.20;;;;;;5054314;28;20132;-49
2022/07/29 12:09:48;;;;;;;5.78;5.18;;;22.80;51.20;;;;;;5064878;28;20460;-52
2022/07/29 12:12:16;;;;;;;4.50;3.83;;;22.80;51.20;;;;;;5062787;28;20032;-47
2022/07/29 12:14:45;;;;;;;4.50;4.10;;;22.70;51.10;;;;;;5065424;28;20119;-49
2022/07/29 12:17:26;;;;;;;4.38;3.97;;;22.80;51.20;;;;;;5054068;28;20024;-48
2022/07/29 12:19:53;;;;;;;6.65;4.13;;;22.80;51.10;;;;;;5063380;28;20033;-48
2022/07/29 12:22:45;;;;;;;5.38;4.18;;;22.80;51.20;;;;;;5064396;28;20029;-49
2022/07/29 12:25:13;;;;;;;7.50;4.40;;;22.80;51.00;;;;;;5063201;28;20028;-48
2022/07/29 12:27:39;;;;;;;5.68;4.07;;;22.80;50.90;;;;;;5065127;28;20025;-51
2022/07/29 12:30:06;;;;;;;6.72;4.68;;;22.80;51.00;;;;;;5046776;28;20043;-50
2022/07/29 12:32:35;;;;;;;4.32;3.95;;;22.90;51.30;;;;;;5064661;28;20040;-48
2022/07/29 12:35:09;;;;;;;6.68;4.30;;;22.90;51.30;;;;;;5065050;28;20036;-49
2022/07/29 12:37:36;;;;;;;6.53;4.72;;;22.80;51.20;;;;;;5062917;28;20078;-46
2022/07/29 12:40:02;;;;;;;4.35;3.97;;;22.80;51.20;;;;;;5062923;28;20107;-48
2022/07/29 12:42:28;;;;;;;5.45;4.07;;;22.90;51.30;;;;;;5064297;28;20029;-48
2022/07/29 12:44:53;;;;;;;4.47;3.83;;;22.90;51.90;;;;;;5063355;28;20028;-48
2022/07/29 12:47:19;;;;;;;5.07;4.07;;;22.90;51.20;;;;;;5064462;28;20040;-51
2022/07/29 12:49:45;;;;;;;6.32;4.30;;;22.90;51.10;;;;;;5063697;28;20029;-48
2022/07/29 12:52:23;;;;;;;6.32;4.70;;;22.90;51.00;;;;;;5063175;28;20409;-48
2022/07/29 12:54:49;;;;;;;6.82;4.30;;;22.90;51.10;;;;;;5065598;28;20052;-47
2022/07/29 12:57:15;;;;;;;4.63;3.88;;;22.90;51.00;;;;;;5064296;28;20063;-50
2022/07/29 12:59:40;;;;;;;5.30;4.10;;;22.90;50.90;;;;;;5065077;28;20111;-49